createdAt,value
2019-05-05T00:00:45.221Z,995.90
2019-05-05T00:01:42.348Z,995.96
2019-05-05T00:02:39.201Z,996.00
2019-05-05T00:03:36.240Z,995.93
2019-05-05T00:04:34.842Z,995.92
2019-05-05T00:05:30.305Z,995.96
2019-05-05T00:06:27.275Z,995.98
2019-05-05T00:07:25.352Z,995.92
2019-05-05T00:08:21.338Z,995.98
2019-05-05T00:09:18.439Z,995.90
2019-05-05T00:10:15.284Z,995.94
2019-05-05T00:11:12.338Z,995.95
2019-05-05T00:12:09.418Z,995.98
2019-05-05T00:13:06.309Z,996.01
2019-05-05T00:14:04.722Z,996.01
2019-05-05T00:15:00.370Z,996.02
2019-05-05T00:15:57.443Z,996.00
2019-05-05T00:16:54.717Z,996.06
2019-05-05T00:17:51.387Z,996.06
2019-05-05T00:18:48.439Z,996.08
2019-05-05T00:19:45.568Z,996.03
2019-05-05T00:20:44.582Z,995.98
2019-05-05T00:21:39.427Z,996.07
2019-05-05T00:22:36.480Z,995.96
2019-05-05T00:23:34.549Z,996.02
2019-05-05T00:24:30.448Z,996.05
2019-05-05T00:25:27.472Z,996.04
2019-05-05T00:26:24.552Z,996.03
2019-05-05T00:27:21.562Z,996.04
2019-05-05T00:28:18.536Z,996.13
2019-05-05T00:29:15.555Z,996.09
2019-05-05T00:30:14.299Z,996.05
2019-05-05T00:31:09.638Z,996.06
2019-05-05T00:32:06.610Z,996.08
2019-05-05T00:33:05.412Z,995.96
2019-05-05T00:34:00.632Z,996.07
2019-05-05T00:34:57.551Z,996.05
2019-05-05T00:35:54.661Z,995.99
2019-05-05T00:36:51.622Z,995.99
2019-05-05T00:37:48.669Z,996.09
2019-05-05T00:38:45.633Z,996.03
2019-05-05T00:39:45.005Z,996.05
2019-05-05T00:40:39.665Z,996.03
2019-05-05T00:41:36.705Z,996.05
2019-05-05T00:42:35.231Z,996.11
2019-05-05T00:43:30.692Z,996.17
2019-05-05T00:44:27.805Z,996.08
2019-05-05T00:45:25.265Z,996.19
2019-05-05T00:46:21.688Z,996.19
2019-05-05T00:47:18.722Z,996.21
2019-05-05T00:48:15.685Z,996.14
2019-05-05T00:49:14.532Z,996.24
2019-05-05T00:50:09.821Z,996.20
2019-05-05T00:51:06.778Z,996.26
2019-05-05T00:52:05.125Z,996.26
2019-05-05T00:53:00.838Z,996.24
2019-05-05T00:53:57.878Z,996.19
2019-05-05T00:54:55.640Z,996.29
2019-05-05T00:55:51.901Z,996.27
2019-05-05T00:56:48.849Z,996.36
2019-05-05T00:57:45.827Z,996.36
2019-05-05T00:58:44.585Z,996.28
2019-05-05T00:59:39.840Z,996.32
2019-05-05T01:00:36.876Z,996.35
2019-05-05T01:01:34.348Z,996.42
2019-05-05T01:02:30.925Z,996.41
2019-05-05T01:03:27.857Z,996.32
2019-05-05T01:04:24.892Z,996.37
2019-05-05T01:05:21.946Z,996.33
2019-05-05T01:06:18.970Z,996.45
2019-05-05T01:07:15.895Z,996.39
2019-05-05T01:08:14.394Z,996.40
2019-05-05T01:09:09.992Z,996.42
2019-05-05T01:10:07.029Z,996.41
2019-05-05T01:11:04.227Z,996.42
2019-05-05T01:12:00.982Z,996.33
2019-05-05T01:12:58.018Z,996.40
2019-05-05T01:13:54.967Z,996.43
2019-05-05T01:14:52.010Z,996.39
2019-05-05T01:15:49.024Z,996.37
2019-05-05T01:16:46.168Z,996.40
2019-05-05T01:17:44.988Z,996.47
2019-05-05T01:18:40.038Z,996.44
2019-05-05T01:19:37.091Z,996.45
2019-05-05T01:20:34.412Z,996.39
2019-05-05T01:21:31.053Z,996.35
2019-05-05T01:22:28.125Z,996.39
2019-05-05T01:23:25.130Z,996.46
2019-05-05T01:24:22.162Z,996.40
2019-05-05T01:25:19.124Z,996.38
2019-05-05T01:26:16.136Z,996.34
2019-05-05T01:27:14.717Z,996.43
2019-05-05T01:28:10.151Z,996.50
2019-05-05T01:29:07.174Z,996.44
2019-05-05T01:30:04.793Z,996.41
2019-05-05T01:31:01.307Z,996.43
2019-05-05T01:31:58.160Z,996.40
2019-05-05T01:32:56.064Z,996.47
2019-05-05T01:33:54.108Z,996.46
2019-05-05T01:34:49.437Z,996.52
2019-05-05T01:35:46.300Z,996.51
2019-05-05T01:36:45.163Z,996.61
2019-05-05T01:37:40.277Z,996.57
2019-05-05T01:38:37.313Z,996.52
2019-05-05T01:39:34.645Z,996.62
2019-05-05T01:40:31.413Z,996.58
2019-05-05T01:41:28.344Z,996.68
2019-05-05T01:42:25.362Z,996.63
2019-05-05T01:43:22.295Z,996.70
2019-05-05T01:44:19.336Z,996.70
2019-05-05T01:45:16.384Z,996.75
2019-05-05T01:46:14.337Z,996.75
2019-05-05T01:47:10.341Z,996.86
2019-05-05T01:48:07.418Z,996.80
2019-05-05T01:49:05.318Z,996.74
2019-05-05T01:50:16.680Z,996.77
2019-05-05T01:50:58.713Z,996.85
2019-05-05T01:51:55.490Z,996.86
2019-05-05T01:52:52.467Z,996.95
2019-05-05T01:53:49.404Z,996.92
2019-05-05T01:54:46.537Z,996.79
2019-05-05T01:55:45.155Z,996.83
2019-05-05T01:56:40.431Z,996.83
2019-05-05T01:57:37.448Z,996.87
2019-05-05T01:58:34.972Z,997.01
2019-05-05T01:59:31.546Z,997.03
2019-05-05T02:00:28.471Z,997.03
2019-05-05T02:01:25.535Z,996.98
2019-05-05T02:02:22.540Z,997.00
2019-05-05T02:03:19.627Z,996.95
2019-05-05T02:04:16.513Z,997.03
2019-05-05T02:05:14.799Z,997.00
2019-05-05T02:06:10.629Z,997.00
2019-05-05T02:07:07.717Z,997.08
2019-05-05T02:08:05.105Z,997.12
2019-05-05T02:09:01.600Z,997.11
2019-05-05T02:09:58.667Z,997.11
2019-05-05T02:10:55.584Z,997.07
2019-05-05T02:11:54.628Z,997.12
2019-05-05T02:12:49.637Z,997.13
2019-05-05T02:13:46.678Z,997.14
2019-05-05T02:14:44.444Z,997.15
2019-05-05T02:15:40.663Z,997.23
2019-05-05T02:16:37.727Z,997.15
2019-05-05T02:17:35.268Z,997.21
2019-05-05T02:18:31.700Z,997.29
2019-05-05T02:19:28.735Z,997.25
2019-05-05T02:20:29.415Z,997.29
2019-05-05T02:21:24.310Z,997.26
2019-05-05T02:22:19.718Z,997.31
2019-05-05T02:23:16.784Z,997.31
2019-05-05T02:24:14.474Z,997.35
2019-05-05T02:25:10.823Z,997.28
2019-05-05T02:26:07.845Z,997.26
2019-05-05T02:27:05.262Z,997.29
2019-05-05T02:28:01.871Z,997.30
2019-05-05T02:28:58.908Z,997.33
2019-05-05T02:29:55.802Z,997.38
2019-05-05T02:30:55.064Z,997.37
2019-05-05T02:31:49.975Z,997.50
2019-05-05T02:32:46.836Z,997.53
2019-05-05T02:33:46.019Z,997.51
2019-05-05T02:34:40.889Z,997.50
2019-05-05T02:35:37.927Z,997.50
2019-05-05T02:36:35.594Z,997.61
2019-05-05T02:37:31.993Z,997.56
2019-05-05T02:38:28.935Z,997.57
2019-05-05T02:39:25.977Z,997.62
2019-05-05T02:40:24.489Z,997.61
2019-05-05T02:41:19.967Z,997.65
2019-05-05T02:42:16.995Z,997.64
2019-05-05T02:43:15.086Z,997.56
2019-05-05T02:44:10.957Z,997.65
2019-05-05T02:45:08.054Z,997.67
2019-05-05T02:46:05.673Z,997.80
2019-05-05T02:47:04.602Z,997.69
2019-05-05T02:47:59.024Z,997.75
2019-05-05T02:48:56.044Z,997.76
2019-05-05T02:49:54.917Z,997.82
2019-05-05T02:50:55.934Z,997.75
2019-05-05T02:51:47.063Z,997.71
2019-05-05T02:52:44.284Z,997.80
2019-05-05T02:53:41.161Z,997.82
2019-05-05T02:54:38.101Z,997.86
2019-05-05T02:55:35.094Z,997.80
2019-05-05T02:56:34.095Z,997.81
2019-05-05T02:57:29.261Z,997.78
2019-05-05T02:58:26.128Z,997.74
2019-05-05T02:59:23.735Z,997.74
2019-05-05T03:00:20.182Z,997.75
2019-05-05T03:01:17.276Z,997.79
2019-05-05T03:02:14.512Z,997.71
2019-05-05T03:03:13.381Z,997.75
2019-05-05T03:04:08.287Z,997.72
2019-05-05T03:05:05.167Z,997.86
2019-05-05T03:06:04.344Z,997.77
2019-05-05T03:06:59.250Z,997.86
2019-05-05T03:07:56.289Z,997.87
2019-05-05T03:08:54.275Z,997.77
2019-05-05T03:09:50.260Z,997.78
2019-05-05T03:10:47.324Z,997.77
2019-05-05T03:11:44.337Z,997.76
2019-05-05T03:12:41.264Z,997.81
2019-05-05T03:13:38.319Z,997.80
2019-05-05T03:14:35.335Z,997.76
2019-05-05T03:15:33.649Z,997.76
2019-05-05T03:16:29.320Z,997.80
2019-05-05T03:17:26.386Z,997.75
2019-05-05T03:18:24.628Z,997.81
2019-05-05T03:19:20.469Z,997.79
2019-05-05T03:20:17.359Z,997.81
2019-05-05T03:21:14.394Z,997.78
2019-05-05T03:22:11.474Z,997.72
2019-05-05T03:23:08.379Z,997.86
2019-05-05T03:24:05.424Z,997.93
2019-05-05T03:25:04.521Z,997.87
2019-05-05T03:25:59.479Z,997.88
2019-05-05T03:26:56.411Z,998.01
2019-05-05T03:27:53.826Z,998.03
2019-05-05T03:28:50.511Z,998.03
2019-05-05T03:29:47.528Z,998.05
2019-05-05T03:30:45.436Z,998.04
2019-05-05T03:31:41.518Z,998.07
2019-05-05T03:32:38.547Z,998.06
2019-05-05T03:33:35.493Z,998.10
2019-05-05T03:34:34.296Z,998.02
2019-05-05T03:35:29.542Z,998.07
2019-05-05T03:36:26.637Z,998.03
2019-05-05T03:37:25.050Z,997.96
2019-05-05T03:38:20.542Z,998.06
2019-05-05T03:39:17.606Z,997.99
2019-05-05T03:40:14.897Z,997.96
2019-05-05T03:41:13.511Z,998.01
2019-05-05T03:42:08.603Z,998.00
2019-05-05T03:43:05.635Z,998.10
2019-05-05T03:44:04.595Z,998.11
2019-05-05T03:44:59.627Z,998.12
2019-05-05T03:45:56.648Z,998.10
2019-05-05T03:46:54.387Z,998.16
2019-05-05T03:47:50.734Z,998.09
2019-05-05T03:48:47.748Z,998.12
2019-05-05T03:49:44.712Z,998.17
2019-05-05T03:50:41.739Z,998.18
2019-05-05T03:51:38.776Z,998.13
2019-05-05T03:52:35.751Z,998.17
2019-05-05T03:53:33.791Z,998.16
2019-05-05T03:54:29.794Z,998.13
2019-05-05T03:55:26.724Z,998.07
2019-05-05T03:56:24.213Z,998.14
2019-05-05T03:57:20.790Z,998.20
2019-05-05T03:58:17.874Z,998.15
2019-05-05T03:59:14.791Z,998.21
2019-05-05T04:00:11.822Z,998.17
2019-05-05T04:01:08.878Z,998.22
2019-05-05T04:02:06.108Z,998.13
2019-05-05T04:03:04.299Z,998.12
2019-05-05T04:03:59.862Z,998.24
2019-05-05T04:04:56.911Z,998.20
2019-05-05T04:05:53.929Z,998.25
2019-05-05T04:06:50.895Z,998.17
2019-05-05T04:07:47.900Z,998.22
2019-05-05T04:08:44.941Z,998.20
2019-05-05T04:09:43.257Z,998.13
2019-05-05T04:10:38.918Z,998.22
2019-05-05T04:11:35.946Z,998.16
2019-05-05T04:12:34.571Z,998.11
2019-05-05T04:13:29.935Z,998.21
2019-05-05T04:14:26.978Z,998.20
2019-05-05T04:15:24.542Z,998.16
2019-05-05T04:16:21.033Z,998.24
2019-05-05T04:17:17.973Z,998.18
2019-05-05T04:18:15.009Z,998.15
2019-05-05T04:19:13.799Z,998.22
2019-05-05T04:20:09.121Z,998.16
2019-05-05T04:21:06.011Z,998.19
2019-05-05T04:22:04.250Z,998.26
2019-05-05T04:23:00.099Z,998.25
2019-05-05T04:23:57.139Z,998.22
2019-05-05T04:24:54.266Z,998.26
2019-05-05T04:25:51.101Z,998.22
2019-05-05T04:26:48.143Z,998.33
2019-05-05T04:27:45.173Z,998.28
2019-05-05T04:28:43.634Z,998.38
2019-05-05T04:29:39.165Z,998.38
2019-05-05T04:30:36.270Z,998.39
2019-05-05T04:31:34.567Z,998.42
2019-05-05T04:32:30.181Z,998.37
2019-05-05T04:33:27.206Z,998.38
2019-05-05T04:34:24.261Z,998.44
2019-05-05T04:35:21.200Z,998.39
2019-05-05T04:36:18.204Z,998.38
2019-05-05T04:37:15.318Z,998.42
2019-05-05T04:38:13.884Z,998.32
2019-05-05T04:39:09.233Z,998.34
2019-05-05T04:40:06.311Z,998.46
2019-05-05T04:41:03.603Z,998.51
2019-05-05T04:42:00.325Z,998.47
2019-05-05T04:42:57.328Z,998.36
2019-05-05T04:43:54.822Z,998.41
2019-05-05T04:44:53.639Z,998.42
2019-05-05T04:45:48.361Z,998.52
2019-05-05T04:46:45.307Z,998.54
2019-05-05T04:47:43.590Z,998.58
2019-05-05T04:48:39.382Z,998.57
2019-05-05T04:49:36.406Z,998.51
2019-05-05T04:50:34.539Z,998.60
2019-05-05T04:51:43.460Z,998.61
2019-05-05T04:52:27.432Z,998.58
2019-05-05T04:53:24.366Z,998.62
2019-05-05T04:54:21.425Z,998.57
2019-05-05T04:55:18.442Z,998.58
2019-05-05T04:56:15.492Z,998.51
2019-05-05T04:57:12.480Z,998.53
2019-05-05T04:58:09.458Z,998.59
2019-05-05T04:59:06.581Z,998.63
2019-05-05T05:00:04.212Z,998.64
2019-05-05T05:01:00.570Z,998.64
2019-05-05T05:01:57.498Z,998.53
2019-05-05T05:02:54.539Z,998.60
2019-05-05T05:03:51.618Z,998.68
2019-05-05T05:04:48.516Z,998.78
2019-05-05T05:05:45.552Z,998.73
2019-05-05T05:06:43.605Z,998.72
2019-05-05T05:07:39.523Z,998.63
2019-05-05T05:08:36.559Z,998.62
2019-05-05T05:09:34.189Z,998.72
2019-05-05T05:10:30.659Z,998.56
2019-05-05T05:11:27.563Z,998.68
2019-05-05T05:12:24.603Z,998.67
2019-05-05T05:13:21.640Z,998.71
2019-05-05T05:14:18.595Z,998.57
2019-05-05T05:15:15.626Z,998.62
2019-05-05T05:16:13.902Z,998.69
2019-05-05T05:17:09.781Z,998.73
2019-05-05T05:18:06.726Z,998.74
2019-05-05T05:19:04.327Z,998.74
2019-05-05T05:20:00.736Z,998.75
2019-05-05T05:20:57.734Z,998.75
2019-05-05T05:22:01.663Z,998.83
2019-05-05T05:22:51.705Z,998.85
2019-05-05T05:23:48.795Z,998.88
2019-05-05T05:24:45.789Z,998.87
2019-05-05T05:25:43.827Z,998.91
2019-05-05T05:26:39.860Z,998.87
2019-05-05T05:27:36.815Z,998.93
2019-05-05T05:28:34.285Z,998.93
2019-05-05T05:29:30.812Z,998.97
2019-05-05T05:30:27.823Z,998.90
2019-05-05T05:31:24.846Z,998.85
2019-05-05T05:32:21.800Z,998.87
2019-05-05T05:33:18.816Z,998.82
2019-05-05T05:34:15.912Z,998.80
2019-05-05T05:35:14.158Z,998.85
2019-05-05T05:36:09.853Z,998.84
2019-05-05T05:37:06.883Z,998.82
2019-05-05T05:38:04.673Z,998.82
2019-05-05T05:39:00.938Z,998.89
2019-05-05T05:39:57.888Z,998.88
2019-05-05T05:40:54.996Z,998.89
2019-05-05T05:41:53.971Z,998.96
2019-05-05T05:42:49.054Z,998.88
2019-05-05T05:43:45.954Z,998.94
2019-05-05T05:44:44.444Z,998.90
2019-05-05T05:45:40.028Z,998.81
2019-05-05T05:46:37.031Z,998.86
2019-05-05T05:47:33.993Z,998.91
2019-05-05T05:48:31.006Z,998.91
2019-05-05T05:49:28.079Z,998.94
2019-05-05T05:50:24.990Z,998.97
2019-05-05T05:51:23.781Z,998.89
2019-05-05T05:52:19.461Z,998.97
2019-05-05T05:53:16.142Z,999.01
2019-05-05T05:54:14.141Z,998.99
2019-05-05T05:55:10.090Z,998.97
2019-05-05T05:56:07.108Z,998.95
2019-05-05T05:57:04.439Z,998.97
2019-05-05T05:58:01.093Z,998.97
2019-05-05T05:58:58.099Z,998.97
2019-05-05T05:59:55.198Z,998.97
2019-05-05T06:00:53.981Z,998.92
2019-05-05T06:01:49.169Z,998.95
2019-05-05T06:02:46.123Z,998.90
2019-05-05T06:03:44.341Z,998.94
2019-05-05T06:04:40.275Z,999.04
2019-05-05T06:05:37.273Z,999.00
2019-05-05T06:06:34.683Z,999.01
2019-05-05T06:07:33.493Z,998.98
2019-05-05T06:08:29.919Z,998.98
2019-05-05T06:09:25.263Z,998.95
2019-05-05T06:10:26.655Z,999.00
2019-05-05T06:11:19.375Z,998.99
2019-05-05T06:12:16.232Z,998.96
2019-05-05T06:13:15.255Z,998.93
2019-05-05T06:14:10.321Z,998.99
2019-05-05T06:15:07.373Z,998.95
2019-05-05T06:16:04.525Z,998.98
2019-05-05T06:17:01.333Z,999.00
2019-05-05T06:17:58.373Z,998.99
2019-05-05T06:18:55.424Z,998.93
2019-05-05T06:19:53.461Z,998.98
2019-05-05T06:20:49.356Z,998.84
2019-05-05T06:21:46.409Z,998.80
2019-05-05T06:22:44.672Z,998.82
2019-05-05T06:23:40.389Z,998.73
2019-05-05T06:24:37.441Z,998.86
2019-05-05T06:25:34.469Z,998.90
2019-05-05T06:26:31.398Z,998.90
2019-05-05T06:27:28.456Z,998.91
2019-05-05T06:28:25.487Z,998.87
2019-05-05T06:29:23.944Z,998.91
2019-05-05T06:30:19.457Z,998.94
2019-05-05T06:31:16.491Z,999.04
2019-05-05T06:32:14.581Z,998.99
2019-05-05T06:33:10.478Z,999.03
2019-05-05T06:34:07.460Z,999.16
2019-05-05T06:35:04.484Z,999.04
2019-05-05T06:36:03.607Z,999.06
2019-05-05T06:36:58.525Z,999.06
2019-05-05T06:37:55.490Z,999.14
2019-05-05T06:38:54.128Z,999.13
2019-05-05T06:39:49.520Z,999.24
2019-05-05T06:40:46.516Z,999.10
2019-05-05T06:41:43.562Z,999.24
2019-05-05T06:42:40.574Z,999.17
2019-05-05T06:43:37.631Z,999.20
2019-05-05T06:44:34.596Z,999.16
2019-05-05T06:45:31.594Z,999.12
2019-05-05T06:46:28.666Z,999.18
2019-05-05T06:47:25.657Z,999.22
2019-05-05T06:48:23.726Z,999.12
2019-05-05T06:49:19.710Z,999.13
2019-05-05T06:50:16.742Z,999.18
2019-05-05T06:51:14.133Z,999.26
2019-05-05T06:52:10.694Z,999.24
2019-05-05T06:53:07.706Z,999.13
2019-05-05T06:54:04.846Z,999.18
2019-05-05T06:55:03.620Z,999.16
2019-05-05T06:55:58.722Z,999.23
2019-05-05T06:56:55.849Z,999.16
2019-05-05T06:57:53.880Z,999.12
2019-05-05T06:58:49.711Z,999.17
2019-05-05T06:59:46.766Z,999.18
2019-05-05T07:00:44.173Z,999.21
2019-05-05T07:01:40.848Z,999.18
2019-05-05T07:02:37.800Z,999.24
2019-05-05T07:03:34.835Z,999.12
2019-05-05T07:04:33.810Z,999.20
2019-05-05T07:05:28.843Z,999.16
2019-05-05T07:06:25.862Z,999.11
2019-05-05T07:07:23.635Z,999.14
2019-05-05T07:08:19.807Z,999.14
2019-05-05T07:09:16.855Z,999.11
2019-05-05T07:10:14.186Z,999.14
2019-05-05T07:11:11.000Z,998.98
2019-05-05T07:12:07.944Z,999.03
2019-05-05T07:13:05.066Z,998.96
2019-05-05T07:14:03.714Z,999.06
2019-05-05T07:14:58.963Z,998.90
2019-05-05T07:15:55.892Z,998.86
2019-05-05T07:16:54.467Z,998.97
2019-05-05T07:17:49.974Z,999.05
2019-05-05T07:18:47.045Z,999.08
2019-05-05T07:19:44.959Z,999.15
2019-05-05T07:20:41.032Z,999.10
2019-05-05T07:21:38.020Z,998.94
2019-05-05T07:22:35.063Z,998.94
2019-05-05T07:23:33.851Z,998.95
2019-05-05T07:24:29.055Z,998.94
2019-05-05T07:25:39.580Z,999.07
2019-05-05T07:26:23.741Z,999.28
2019-05-05T07:27:20.076Z,999.39
2019-05-05T07:28:17.114Z,999.46
2019-05-05T07:29:17.920Z,999.36
2019-05-05T07:30:11.051Z,999.37
2019-05-05T07:31:08.104Z,999.30
2019-05-05T07:32:05.163Z,999.44
2019-05-05T07:33:04.424Z,999.26
2019-05-05T07:33:59.119Z,999.16
2019-05-05T07:34:56.137Z,998.99
2019-05-05T07:35:59.409Z,999.03
2019-05-05T07:36:50.273Z,999.00
2019-05-05T07:37:47.228Z,999.64
2019-05-05T07:38:44.325Z,999.29
2019-05-05T07:39:41.235Z,999.22
2019-05-05T07:40:38.241Z,999.08
2019-05-05T07:41:35.163Z,999.00
2019-05-05T07:42:33.559Z,999.05
2019-05-05T07:43:29.285Z,999.17
2019-05-05T07:44:29.581Z,999.43
2019-05-05T07:45:25.633Z,999.01
2019-05-05T07:46:20.276Z,998.90
2019-05-05T07:47:17.216Z,998.77
2019-05-05T07:48:14.305Z,998.97
2019-05-05T07:49:11.303Z,999.09
2019-05-05T07:50:14.512Z,999.14
2019-05-05T07:51:05.517Z,999.12
2019-05-05T07:52:04.043Z,998.91
2019-05-05T07:53:11.498Z,999.37
2019-05-05T07:53:56.370Z,1000.01
2019-05-05T07:54:55.129Z,999.87
2019-05-05T07:55:50.340Z,999.58
2019-05-05T07:56:47.464Z,999.40
2019-05-05T07:57:44.428Z,999.57
2019-05-05T07:58:41.373Z,999.13
2019-05-05T07:59:38.479Z,999.19
2019-05-05T08:00:35.478Z,997.96
2019-05-05T08:01:33.688Z,997.93
2019-05-05T08:02:29.395Z,997.87
2019-05-05T08:03:26.468Z,998.27
2019-05-05T08:04:24.236Z,998.79
2019-05-05T08:05:20.531Z,998.49
2019-05-05T08:06:17.487Z,998.60
2019-05-05T08:07:14.815Z,998.73
2019-05-05T08:08:13.728Z,999.30
2019-05-05T08:09:08.561Z,1001.27
2019-05-05T08:10:05.611Z,1001.25
2019-05-05T08:11:04.657Z,1000.90
2019-05-05T08:11:59.621Z,1000.23
2019-05-05T08:12:56.809Z,999.92
2019-05-05T08:13:54.749Z,999.76
2019-05-05T08:14:50.612Z,999.08
2019-05-05T08:15:59.171Z,997.96
2019-05-05T08:16:44.792Z,998.13
2019-05-05T08:17:41.597Z,998.27
2019-05-05T08:18:38.719Z,998.66
2019-05-05T08:19:35.618Z,998.75
2019-05-05T08:20:33.919Z,999.49
2019-05-05T08:21:29.719Z,999.78
2019-05-05T08:22:26.686Z,1000.50
2019-05-05T08:23:31.807Z,1000.25
2019-05-05T08:24:20.650Z,999.61
2019-05-05T08:25:18.252Z,999.05
2019-05-05T08:26:14.773Z,1000.02
2019-05-05T08:27:11.728Z,1000.39
2019-05-05T08:28:08.734Z,1000.35
2019-05-05T08:29:05.751Z,1000.05
2019-05-05T08:30:05.145Z,999.64
2019-05-05T08:30:59.735Z,998.72
2019-05-05T08:31:56.830Z,999.40
2019-05-05T08:32:54.475Z,999.08
2019-05-05T08:33:50.761Z,998.21
2019-05-05T08:34:57.463Z,998.05
2019-05-05T08:35:44.968Z,997.57
2019-05-05T08:36:41.735Z,997.59
2019-05-05T08:37:38.810Z,999.61
2019-05-05T08:38:35.795Z,1000.45
2019-05-05T08:39:34.544Z,1000.65
2019-05-05T08:40:29.861Z,1000.62
2019-05-05T08:41:26.916Z,1000.34
2019-05-05T08:42:24.652Z,1000.21
2019-05-05T08:43:20.885Z,1000.09
2019-05-05T08:44:18.207Z,999.99
2019-05-05T08:45:14.883Z,1000.05
2019-05-05T08:46:14.183Z,999.87
2019-05-05T08:47:08.973Z,999.69
2019-05-05T08:48:05.910Z,999.17
2019-05-05T08:49:04.389Z,999.62
2019-05-05T08:49:59.998Z,996.28
2019-05-05T08:50:56.905Z,995.23
2019-05-05T08:51:54.743Z,995.90
2019-05-05T08:52:51.012Z,998.02
2019-05-05T08:53:48.540Z,1000.57
2019-05-05T08:54:44.930Z,1001.15
2019-05-05T08:55:44.109Z,1001.29
2019-05-05T08:56:39.099Z,1001.61
2019-05-05T08:57:36.044Z,1001.20
2019-05-05T08:58:34.402Z,1001.05
2019-05-05T08:59:30.063Z,1000.73
2019-05-05T09:00:27.140Z,1000.31
2019-05-05T09:01:24.088Z,999.70
2019-05-05T09:02:21.028Z,999.64
2019-05-05T09:03:18.100Z,999.59
2019-05-05T09:04:15.400Z,999.68
2019-05-05T09:05:14.321Z,999.67
2019-05-05T09:06:09.165Z,999.51
2019-05-05T09:07:06.152Z,999.52
2019-05-05T09:08:04.591Z,997.24
2019-05-05T09:09:00.127Z,998.32
2019-05-05T09:09:57.206Z,997.93
2019-05-05T09:10:55.251Z,996.97
2019-05-05T09:11:51.185Z,1000.88
2019-05-05T09:12:48.127Z,1001.06
2019-05-05T09:13:45.167Z,1001.12
2019-05-05T09:14:42.287Z,1000.55
2019-05-05T09:15:39.147Z,1000.64
2019-05-05T09:16:36.211Z,1000.38
2019-05-05T09:17:33.620Z,1000.19
2019-05-05T09:18:30.286Z,999.94
2019-05-05T09:19:27.215Z,999.79
2019-05-05T09:20:24.550Z,999.70
2019-05-05T09:21:21.303Z,999.67
2019-05-05T09:22:18.213Z,999.49
2019-05-05T09:23:15.269Z,999.47
2019-05-05T09:24:14.260Z,999.43
2019-05-05T09:25:09.315Z,999.37
2019-05-05T09:26:06.260Z,999.31
2019-05-05T09:27:03.729Z,999.39
2019-05-05T09:28:03.018Z,998.43
2019-05-05T09:28:57.479Z,998.31
2019-05-05T09:29:54.425Z,998.78
2019-05-05T09:30:53.511Z,999.34
2019-05-05T09:31:48.450Z,999.60
2019-05-05T09:32:45.317Z,999.58
2019-05-05T09:33:44.236Z,999.95
2019-05-05T09:34:39.412Z,1000.09
2019-05-05T09:35:36.440Z,1000.22
2019-05-05T09:36:34.830Z,1000.09
2019-05-05T09:37:30.480Z,999.97
2019-05-05T09:38:30.054Z,999.91
2019-05-05T09:39:24.438Z,999.84
2019-05-05T09:40:21.432Z,999.70
2019-05-05T09:41:18.567Z,999.65
2019-05-05T09:42:15.562Z,999.67
2019-05-05T09:43:14.538Z,999.75
2019-05-05T09:44:09.449Z,999.71
2019-05-05T09:45:06.543Z,999.66
2019-05-05T09:46:03.989Z,999.71
2019-05-05T09:47:00.474Z,999.56
2019-05-05T09:47:57.730Z,999.48
2019-05-05T09:48:54.628Z,999.44
2019-05-05T09:49:51.551Z,999.57
2019-05-05T09:50:49.135Z,999.59
2019-05-05T09:51:45.579Z,999.51
2019-05-05T09:52:44.314Z,999.66
2019-05-05T09:53:39.608Z,999.62
2019-05-05T09:54:36.585Z,999.39
2019-05-05T09:55:33.725Z,999.35
2019-05-05T09:56:30.704Z,999.41
2019-05-05T09:57:27.579Z,999.14
2019-05-05T09:58:24.602Z,998.66
2019-05-05T09:59:23.510Z,996.36
2019-05-05T10:00:18.668Z,997.27
2019-05-05T10:01:15.699Z,997.92
2019-05-05T10:02:12.697Z,998.73
2019-05-05T10:03:09.982Z,1000.26
2019-05-05T10:04:06.756Z,1000.89
2019-05-05T10:05:04.033Z,1001.16
2019-05-05T10:06:00.744Z,1001.10
2019-05-05T10:06:57.814Z,1000.86
2019-05-05T10:07:54.757Z,1000.68
2019-05-05T10:08:53.744Z,1000.57
2019-05-05T10:09:48.780Z,1000.57
2019-05-05T10:10:45.688Z,1000.54
2019-05-05T10:11:44.801Z,1000.23
2019-05-05T10:12:39.954Z,1000.08
2019-05-05T10:13:36.764Z,999.98
2019-05-05T10:14:34.255Z,999.80
2019-05-05T10:15:30.807Z,999.78
2019-05-05T10:16:27.750Z,999.73
2019-05-05T10:17:24.833Z,999.59
2019-05-05T10:18:21.870Z,999.55
2019-05-05T10:19:18.806Z,999.04
2019-05-05T10:20:16.646Z,998.73
2019-05-05T10:21:13.822Z,998.30
2019-05-05T10:22:09.852Z,998.92
2019-05-05T10:23:07.059Z,999.07
2019-05-05T10:24:04.577Z,999.05
2019-05-05T10:25:01.020Z,999.62
2019-05-05T10:25:57.864Z,999.43
2019-05-05T10:26:54.921Z,999.91
2019-05-05T10:27:53.838Z,999.07
2019-05-05T10:28:48.974Z,999.44
2019-05-05T10:29:46.001Z,999.78
2019-05-05T10:30:42.992Z,999.55
2019-05-05T10:31:40.079Z,999.42
2019-05-05T10:32:36.918Z,999.68
2019-05-05T10:33:36.355Z,999.40
2019-05-05T10:34:31.047Z,999.32
2019-05-05T10:35:28.076Z,999.40
2019-05-05T10:36:24.976Z,999.29
2019-05-05T10:37:23.521Z,999.10
2019-05-05T10:38:19.066Z,999.47
2019-05-05T10:39:16.072Z,999.72
2019-05-05T10:40:13.010Z,999.16
2019-05-05T10:41:10.153Z,998.84
2019-05-05T10:42:07.094Z,999.72
2019-05-05T10:43:04.564Z,1000.25
2019-05-05T10:44:01.092Z,1000.81
2019-05-05T10:44:58.137Z,1000.24
2019-05-05T10:45:55.058Z,999.91
2019-05-05T10:46:53.923Z,1000.49
2019-05-05T10:47:49.172Z,1000.14
2019-05-05T10:48:46.272Z,1000.31
2019-05-05T10:49:44.183Z,999.87
2019-05-05T10:50:40.206Z,999.74
2019-05-05T10:51:37.253Z,999.48
2019-05-05T10:52:34.210Z,999.98
2019-05-05T10:53:31.149Z,1000.00
2019-05-05T10:54:40.581Z,999.86
2019-05-05T10:55:25.208Z,999.80
2019-05-05T10:56:24.089Z,1000.08
2019-05-05T10:57:19.224Z,1000.08
2019-05-05T10:58:16.313Z,999.86
2019-05-05T10:59:13.359Z,999.85
2019-05-05T11:00:14.784Z,999.88
2019-05-05T11:01:07.228Z,1000.22
2019-05-05T11:02:04.856Z,1000.11
2019-05-05T11:03:01.322Z,1000.07
2019-05-05T11:03:58.404Z,1000.06
2019-05-05T11:04:55.312Z,1000.06
2019-05-05T11:05:53.804Z,1000.05
2019-05-05T11:06:49.346Z,999.98
2019-05-05T11:07:46.379Z,1000.02
2019-05-05T11:08:45.145Z,999.96
2019-05-05T11:09:40.459Z,999.97
2019-05-05T11:10:37.399Z,1000.06
2019-05-05T11:11:34.451Z,999.93
2019-05-05T11:12:31.466Z,999.90
2019-05-05T11:13:28.411Z,999.75
2019-05-05T11:14:25.366Z,999.78
2019-05-05T11:15:24.522Z,999.78
2019-05-05T11:16:19.414Z,999.85
2019-05-05T11:17:16.460Z,999.85
2019-05-05T11:18:14.749Z,999.81
2019-05-05T11:19:10.429Z,999.81
2019-05-05T11:20:07.492Z,999.78
2019-05-05T11:21:04.498Z,999.78
2019-05-05T11:22:01.576Z,999.74
2019-05-05T11:22:58.490Z,999.75
2019-05-05T11:23:55.563Z,999.76
2019-05-05T11:24:58.290Z,999.69
2019-05-05T11:25:49.483Z,999.79
2019-05-05T11:26:46.516Z,999.77
2019-05-05T11:27:44.131Z,999.71
2019-05-05T11:28:40.519Z,999.74
2019-05-05T11:29:37.626Z,999.76
2019-05-05T11:30:34.568Z,999.53
2019-05-05T11:31:31.629Z,999.51
2019-05-05T11:32:28.576Z,998.69
2019-05-05T11:33:25.614Z,999.09
2019-05-05T11:34:24.633Z,998.99
2019-05-05T11:35:19.590Z,998.94
2019-05-05T11:36:16.635Z,998.85
2019-05-05T11:37:13.651Z,999.31
2019-05-05T11:38:10.756Z,999.50
2019-05-05T11:39:07.698Z,999.35
2019-05-05T11:40:04.664Z,999.50
2019-05-05T11:41:01.775Z,999.54
2019-05-05T11:41:58.767Z,1000.43
2019-05-05T11:42:55.640Z,1000.50
2019-05-05T11:43:53.468Z,1000.15
2019-05-05T11:44:49.833Z,999.90
2019-05-05T11:45:46.670Z,999.16
2019-05-05T11:46:44.258Z,999.37
2019-05-05T11:47:40.767Z,999.49
2019-05-05T11:48:37.772Z,999.54
2019-05-05T11:49:34.711Z,999.20